sensor_id;sensor_type;location;lat;lon;timestamp;P1;durP1;ratioP1;P2;durP2;ratioP2
28625;SDS011;18905;42.668;23.364;2023-02-28T00:00:38;32.70;;;16.50;;
28625;SDS011;18905;42.668;23.364;2023-02-28T00:03:04;30.63;;;17.65;;
28625;SDS011;18905;42.668;23.364;2023-02-28T00:05:30;28.80;;;17.42;;
28625;SDS011;18905;42.668;23.364;2023-02-28T00:07:55;31.52;;;17.88;;
28625;SDS011;18905;42.668;23.364;2023-02-28T00:10:24;30.50;;;17.38;;
28625;SDS011;18905;42.668;23.364;2023-02-28T00:12:53;31.58;;;17.17;;
28625;SDS011;18905;42.668;23.364;2023-02-28T00:15:21;27.17;;;16.48;;
28625;SDS011;18905;42.668;23.364;2023-02-28T00:17:48;31.95;;;17.88;;
28625;SDS011;18905;42.668;23.364;2023-02-28T00:20:13;33.50;;;17.27;;
28625;SDS011;18905;42.668;23.364;2023-02-28T00:22:39;34.83;;;17.67;;
28625;SDS011;18905;42.668;23.364;2023-02-28T00:25:07;36.25;;;19.02;;
28625;SDS011;18905;42.668;23.364;2023-02-28T00:27:34;38.78;;;19.23;;
28625;SDS011;18905;42.668;23.364;2023-02-28T00:30:01;35.70;;;18.25;;
28625;SDS011;18905;42.668;23.364;2023-02-28T00:32:26;31.13;;;17.90;;
28625;SDS011;18905;42.668;23.364;2023-02-28T00:34:52;36.45;;;19.75;;
28625;SDS011;18905;42.668;23.364;2023-02-28T00:37:17;35.75;;;18.08;;
28625;SDS011;18905;42.668;23.364;2023-02-28T00:39:43;43.45;;;20.50;;
28625;SDS011;18905;42.668;23.364;2023-02-28T00:42:08;37.22;;;18.35;;
28625;SDS011;18905;42.668;23.364;2023-02-28T00:44:34;33.30;;;19.58;;
28625;SDS011;18905;42.668;23.364;2023-02-28T00:46:59;36.85;;;19.77;;
28625;SDS011;18905;42.668;23.364;2023-02-28T00:49:25;36.67;;;19.67;;
28625;SDS011;18905;42.668;23.364;2023-02-28T00:51:52;42.92;;;20.67;;
28625;SDS011;18905;42.668;23.364;2023-02-28T00:54:19;40.45;;;20.27;;
28625;SDS011;18905;42.668;23.364;2023-02-28T00:56:44;42.78;;;22.00;;
28625;SDS011;18905;42.668;23.364;2023-02-28T00:59:11;40.60;;;22.42;;
28625;SDS011;18905;42.668;23.364;2023-02-28T01:01:37;46.55;;;25.95;;
28625;SDS011;18905;42.668;23.364;2023-02-28T01:04:03;52.10;;;24.75;;
28625;SDS011;18905;42.668;23.364;2023-02-28T01:06:29;50.75;;;24.35;;
28625;SDS011;18905;42.668;23.364;2023-02-28T01:08:56;46.67;;;24.13;;
28625;SDS011;18905;42.668;23.364;2023-02-28T01:11:22;42.75;;;23.70;;
28625;SDS011;18905;42.668;23.364;2023-02-28T01:13:47;44.45;;;23.80;;
28625;SDS011;18905;42.668;23.364;2023-02-28T01:16:13;44.47;;;23.98;;
28625;SDS011;18905;42.668;23.364;2023-02-28T01:18:39;43.22;;;24.13;;
28625;SDS011;18905;42.668;23.364;2023-02-28T01:21:05;45.45;;;23.58;;
28625;SDS011;18905;42.668;23.364;2023-02-28T01:23:31;48.22;;;23.50;;
28625;SDS011;18905;42.668;23.364;2023-02-28T01:25:58;43.83;;;23.00;;
28625;SDS011;18905;42.668;23.364;2023-02-28T01:28:29;47.75;;;22.23;;
28625;SDS011;18905;42.668;23.364;2023-02-28T01:30:54;41.13;;;22.00;;
28625;SDS011;18905;42.668;23.364;2023-02-28T01:33:20;43.25;;;22.15;;
28625;SDS011;18905;42.668;23.364;2023-02-28T01:35:45;39.88;;;22.02;;
28625;SDS011;18905;42.668;23.364;2023-02-28T01:38:11;39.38;;;20.77;;
28625;SDS011;18905;42.668;23.364;2023-02-28T01:40:36;40.85;;;21.40;;
28625;SDS011;18905;42.668;23.364;2023-02-28T01:43:01;44.30;;;22.55;;
28625;SDS011;18905;42.668;23.364;2023-02-28T01:45:28;41.97;;;21.75;;
28625;SDS011;18905;42.668;23.364;2023-02-28T01:47:59;42.53;;;20.33;;
28625;SDS011;18905;42.668;23.364;2023-02-28T01:50:29;39.22;;;22.05;;
28625;SDS011;18905;42.668;23.364;2023-02-28T01:52:59;34.78;;;20.00;;
28625;SDS011;18905;42.668;23.364;2023-02-28T01:55:29;44.45;;;21.25;;
28625;SDS011;18905;42.668;23.364;2023-02-28T01:57:57;39.38;;;20.40;;
28625;SDS011;18905;42.668;23.364;2023-02-28T02:00:26;37.88;;;20.60;;
28625;SDS011;18905;42.668;23.364;2023-02-28T02:02:54;38.13;;;21.05;;
28625;SDS011;18905;42.668;23.364;2023-02-28T02:05:26;36.88;;;19.83;;
28625;SDS011;18905;42.668;23.364;2023-02-28T02:07:56;38.17;;;19.88;;
28625;SDS011;18905;42.668;23.364;2023-02-28T02:10:36;35.60;;;20.48;;
28625;SDS011;18905;42.668;23.364;2023-02-28T02:18:33;39.22;;;22.10;;
28625;SDS011;18905;42.668;23.364;2023-02-28T02:21:12;42.63;;;22.52;;
28625;SDS011;18905;42.668;23.364;2023-02-28T02:29:40;43.72;;;23.48;;
28625;SDS011;18905;42.668;23.364;2023-02-28T02:32:16;44.88;;;23.55;;
28625;SDS011;18905;42.668;23.364;2023-02-28T02:42:29;47.42;;;25.55;;
28625;SDS011;18905;42.668;23.364;2023-02-28T02:45:12;46.22;;;25.15;;
28625;SDS011;18905;42.668;23.364;2023-02-28T02:47:43;44.40;;;23.65;;
28625;SDS011;18905;42.668;23.364;2023-02-28T02:50:14;46.55;;;24.77;;
28625;SDS011;18905;42.668;23.364;2023-02-28T02:52:48;46.47;;;24.17;;
28625;SDS011;18905;42.668;23.364;2023-02-28T02:55:17;44.28;;;23.63;;
28625;SDS011;18905;42.668;23.364;2023-02-28T02:57:55;48.17;;;25.08;;
28625;SDS011;18905;42.668;23.364;2023-02-28T03:00:36;51.28;;;24.00;;
28625;SDS011;18905;42.668;23.364;2023-02-28T03:03:06;51.08;;;24.27;;
28625;SDS011;18905;42.668;23.364;2023-02-28T03:05:55;50.55;;;25.20;;
28625;SDS011;18905;42.668;23.364;2023-02-28T03:08:25;47.72;;;24.48;;
28625;SDS011;18905;42.668;23.364;2023-02-28T03:10:51;49.08;;;25.83;;
28625;SDS011;18905;42.668;23.364;2023-02-28T03:13:36;58.20;;;28.38;;
28625;SDS011;18905;42.668;23.364;2023-02-28T03:28:16;63.70;;;30.58;;
28625;SDS011;18905;42.668;23.364;2023-02-28T03:33:26;71.80;;;31.08;;
28625;SDS011;18905;42.668;23.364;2023-02-28T03:35:59;67.35;;;32.00;;
28625;SDS011;18905;42.668;23.364;2023-02-28T03:38:33;81.88;;;35.83;;
28625;SDS011;18905;42.668;23.364;2023-02-28T03:44:19;83.13;;;37.00;;
28625;SDS011;18905;42.668;23.364;2023-02-28T03:46:55;84.93;;;35.47;;
28625;SDS011;18905;42.668;23.364;2023-02-28T03:49:25;88.28;;;36.33;;
28625;SDS011;18905;42.668;23.364;2023-02-28T03:51:55;85.43;;;35.95;;
28625;SDS011;18905;42.668;23.364;2023-02-28T03:54:25;96.00;;;36.28;;
28625;SDS011;18905;42.668;23.364;2023-02-28T03:59:47;89.72;;;36.13;;
28625;SDS011;18905;42.668;23.364;2023-02-28T04:02:19;106.70;;;36.35;;
28625;SDS011;18905;42.668;23.364;2023-02-28T04:04:44;86.25;;;35.25;;
28625;SDS011;18905;42.668;23.364;2023-02-28T04:07:13;84.55;;;35.50;;
28625;SDS011;18905;42.668;23.364;2023-02-28T04:09:39;85.20;;;35.08;;
28625;SDS011;18905;42.668;23.364;2023-02-28T04:12:04;78.88;;;34.72;;
28625;SDS011;18905;42.668;23.364;2023-02-28T04:14:30;85.63;;;34.17;;
28625;SDS011;18905;42.668;23.364;2023-02-28T04:16:55;79.90;;;34.05;;
28625;SDS011;18905;42.668;23.364;2023-02-28T04:19:21;77.78;;;32.50;;
28625;SDS011;18905;42.668;23.364;2023-02-28T04:21:47;76.22;;;31.60;;
28625;SDS011;18905;42.668;23.364;2023-02-28T04:24:16;86.70;;;34.55;;
28625;SDS011;18905;42.668;23.364;2023-02-28T04:26:53;85.55;;;35.30;;
28625;SDS011;18905;42.668;23.364;2023-02-28T04:29:27;83.25;;;34.60;;
28625;SDS011;18905;42.668;23.364;2023-02-28T04:31:54;89.38;;;32.78;;
28625;SDS011;18905;42.668;23.364;2023-02-28T04:34:24;77.82;;;33.88;;
28625;SDS011;18905;42.668;23.364;2023-02-28T04:36:50;81.43;;;35.88;;
28625;SDS011;18905;42.668;23.364;2023-02-28T04:39:18;89.38;;;35.67;;
28625;SDS011;18905;42.668;23.364;2023-02-28T04:41:44;93.35;;;36.97;;
28625;SDS011;18905;42.668;23.364;2023-02-28T04:44:10;94.07;;;37.38;;
28625;SDS011;18905;42.668;23.364;2023-02-28T04:46:36;140.68;;;40.00;;
28625;SDS011;18905;42.668;23.364;2023-02-28T04:49:01;124.43;;;40.40;;
28625;SDS011;18905;42.668;23.364;2023-02-28T04:51:27;102.15;;;38.70;;
28625;SDS011;18905;42.668;23.364;2023-02-28T04:53:53;97.68;;;39.40;;
28625;SDS011;18905;42.668;23.364;2023-02-28T04:56:18;115.70;;;40.13;;
28625;SDS011;18905;42.668;23.364;2023-02-28T04:58:45;103.45;;;39.67;;
28625;SDS011;18905;42.668;23.364;2023-02-28T05:01:18;110.30;;;40.47;;
28625;SDS011;18905;42.668;23.364;2023-02-28T05:03:51;118.75;;;38.50;;
28625;SDS011;18905;42.668;23.364;2023-02-28T05:06:18;99.78;;;37.47;;
28625;SDS011;18905;42.668;23.364;2023-02-28T05:08:45;100.38;;;37.53;;
28625;SDS011;18905;42.668;23.364;2023-02-28T05:11:33;131.23;;;37.85;;
28625;SDS011;18905;42.668;23.364;2023-02-28T05:14:01;93.47;;;34.05;;
28625;SDS011;18905;42.668;23.364;2023-02-28T05:16:28;121.15;;;34.30;;
28625;SDS011;18905;42.668;23.364;2023-02-28T05:18:54;76.10;;;31.63;;
28625;SDS011;18905;42.668;23.364;2023-02-28T05:21:25;86.50;;;31.98;;
28625;SDS011;18905;42.668;23.364;2023-02-28T05:23:57;93.40;;;34.22;;
28625;SDS011;18905;42.668;23.364;2023-02-28T05:26:26;82.65;;;32.40;;
28625;SDS011;18905;42.668;23.364;2023-02-28T05:28:53;75.75;;;32.50;;
28625;SDS011;18905;42.668;23.364;2023-02-28T05:31:19;83.20;;;34.50;;
28625;SDS011;18905;42.668;23.364;2023-02-28T05:33:44;84.10;;;33.40;;
28625;SDS011;18905;42.668;23.364;2023-02-28T05:36:10;82.80;;;35.08;;
28625;SDS011;18905;42.668;23.364;2023-02-28T05:38:36;85.68;;;35.65;;
28625;SDS011;18905;42.668;23.364;2023-02-28T05:41:09;85.78;;;36.60;;
28625;SDS011;18905;42.668;23.364;2023-02-28T05:43:36;90.72;;;38.03;;
28625;SDS011;18905;42.668;23.364;2023-02-28T05:46:03;83.35;;;36.03;;
28625;SDS011;18905;42.668;23.364;2023-02-28T05:48:33;87.78;;;36.58;;
28625;SDS011;18905;42.668;23.364;2023-02-28T05:51:00;94.60;;;38.25;;
28625;SDS011;18905;42.668;23.364;2023-02-28T05:53:27;102.97;;;41.63;;
28625;SDS011;18905;42.668;23.364;2023-02-28T05:55:54;107.75;;;41.92;;
28625;SDS011;18905;42.668;23.364;2023-02-28T05:58:22;102.10;;;41.90;;
28625;SDS011;18905;42.668;23.364;2023-02-28T06:00:48;98.90;;;41.63;;
28625;SDS011;18905;42.668;23.364;2023-02-28T06:03:14;106.57;;;43.05;;
28625;SDS011;18905;42.668;23.364;2023-02-28T06:05:40;111.80;;;42.95;;
28625;SDS011;18905;42.668;23.364;2023-02-28T06:08:06;103.43;;;41.83;;
28625;SDS011;18905;42.668;23.364;2023-02-28T06:10:33;91.95;;;41.03;;
28625;SDS011;18905;42.668;23.364;2023-02-28T06:13:00;97.18;;;43.05;;
28625;SDS011;18905;42.668;23.364;2023-02-28T06:15:27;112.10;;;46.03;;
28625;SDS011;18905;42.668;23.364;2023-02-28T06:17:54;107.82;;;46.25;;
28625;SDS011;18905;42.668;23.364;2023-02-28T06:20:22;109.22;;;45.55;;
28625;SDS011;18905;42.668;23.364;2023-02-28T06:22:48;106.57;;;47.33;;
28625;SDS011;18905;42.668;23.364;2023-02-28T06:25:16;105.95;;;44.55;;
28625;SDS011;18905;42.668;23.364;2023-02-28T06:27:43;100.82;;;44.90;;
28625;SDS011;18905;42.668;23.364;2023-02-28T06:30:09;98.32;;;43.40;;
28625;SDS011;18905;42.668;23.364;2023-02-28T06:32:36;95.57;;;41.78;;
28625;SDS011;18905;42.668;23.364;2023-02-28T06:35:02;97.65;;;40.25;;
28625;SDS011;18905;42.668;23.364;2023-02-28T06:37:28;97.55;;;40.22;;
28625;SDS011;18905;42.668;23.364;2023-02-28T06:39:56;104.15;;;41.10;;
28625;SDS011;18905;42.668;23.364;2023-02-28T06:42:22;101.55;;;40.25;;
28625;SDS011;18905;42.668;23.364;2023-02-28T06:44:54;110.50;;;42.63;;
28625;SDS011;18905;42.668;23.364;2023-02-28T06:47:20;106.18;;;42.50;;
28625;SDS011;18905;42.668;23.364;2023-02-28T06:49:47;105.10;;;42.50;;
28625;SDS011;18905;42.668;23.364;2023-02-28T06:52:14;89.20;;;40.60;;
28625;SDS011;18905;42.668;23.364;2023-02-28T06:54:39;86.70;;;37.75;;
28625;SDS011;18905;42.668;23.364;2023-02-28T06:57:06;78.68;;;36.45;;
28625;SDS011;18905;42.668;23.364;2023-02-28T06:59:34;72.47;;;35.65;;
28625;SDS011;18905;42.668;23.364;2023-02-28T07:02:01;71.07;;;35.63;;
28625;SDS011;18905;42.668;23.364;2023-02-28T07:04:27;75.50;;;35.80;;
28625;SDS011;18905;42.668;23.364;2023-02-28T07:06:54;78.40;;;37.33;;
28625;SDS011;18905;42.668;23.364;2023-02-28T07:09:22;75.05;;;37.05;;
28625;SDS011;18905;42.668;23.364;2023-02-28T07:11:48;75.15;;;36.28;;
28625;SDS011;18905;42.668;23.364;2023-02-28T07:14:14;77.32;;;35.20;;
28625;SDS011;18905;42.668;23.364;2023-02-28T07:16:42;76.60;;;37.35;;
28625;SDS011;18905;42.668;23.364;2023-02-28T07:19:18;87.80;;;41.60;;
28625;SDS011;18905;42.668;23.364;2023-02-28T07:24:50;66.45;;;33.25;;
28625;SDS011;18905;42.668;23.364;2023-02-28T07:27:40;69.53;;;33.75;;
28625;SDS011;18905;42.668;23.364;2023-02-28T07:30:13;59.83;;;30.02;;
28625;SDS011;18905;42.668;23.364;2023-02-28T07:32:44;63.15;;;31.42;;
28625;SDS011;18905;42.668;23.364;2023-02-28T07:35:10;59.35;;;31.73;;
28625;SDS011;18905;42.668;23.364;2023-02-28T07:37:48;54.15;;;30.50;;
28625;SDS011;18905;42.668;23.364;2023-02-28T07:40:47;58.75;;;31.33;;
28625;SDS011;18905;42.668;23.364;2023-02-28T07:43:16;57.22;;;31.33;;
28625;SDS011;18905;42.668;23.364;2023-02-28T07:45:41;53.97;;;29.42;;
28625;SDS011;18905;42.668;23.364;2023-02-28T07:48:07;57.03;;;29.83;;
28625;SDS011;18905;42.668;23.364;2023-02-28T07:50:35;55.47;;;29.20;;
28625;SDS011;18905;42.668;23.364;2023-02-28T07:53:00;53.28;;;28.73;;
28625;SDS011;18905;42.668;23.364;2023-02-28T07:55:27;60.28;;;30.48;;
28625;SDS011;18905;42.668;23.364;2023-02-28T07:57:52;54.80;;;29.45;;
28625;SDS011;18905;42.668;23.364;2023-02-28T08:00:19;51.08;;;29.02;;
28625;SDS011;18905;42.668;23.364;2023-02-28T08:02:45;54.17;;;29.80;;
28625;SDS011;18905;42.668;23.364;2023-02-28T08:05:11;49.53;;;29.27;;
28625;SDS011;18905;42.668;23.364;2023-02-28T08:07:37;53.22;;;29.88;;
28625;SDS011;18905;42.668;23.364;2023-02-28T08:10:06;56.60;;;29.20;;
28625;SDS011;18905;42.668;23.364;2023-02-28T08:12:33;50.67;;;29.67;;
28625;SDS011;18905;42.668;23.364;2023-02-28T08:14:59;55.72;;;30.13;;
28625;SDS011;18905;42.668;23.364;2023-02-28T08:17:28;57.70;;;31.77;;
28625;SDS011;18905;42.668;23.364;2023-02-28T08:19:53;54.45;;;30.15;;
28625;SDS011;18905;42.668;23.364;2023-02-28T08:22:19;61.28;;;29.60;;
28625;SDS011;18905;42.668;23.364;2023-02-28T08:24:45;63.47;;;29.75;;
28625;SDS011;18905;42.668;23.364;2023-02-28T08:27:11;57.25;;;30.33;;
28625;SDS011;18905;42.668;23.364;2023-02-28T08:29:38;60.90;;;30.63;;
28625;SDS011;18905;42.668;23.364;2023-02-28T08:32:24;53.63;;;28.20;;
28625;SDS011;18905;42.668;23.364;2023-02-28T08:34:51;55.05;;;29.30;;
28625;SDS011;18905;42.668;23.364;2023-02-28T08:37:19;62.17;;;30.48;;
28625;SDS011;18905;42.668;23.364;2023-02-28T08:39:50;52.35;;;29.35;;
28625;SDS011;18905;42.668;23.364;2023-02-28T08:42:16;57.47;;;29.45;;
28625;SDS011;18905;42.668;23.364;2023-02-28T08:44:42;57.92;;;27.65;;
28625;SDS011;18905;42.668;23.364;2023-02-28T08:47:08;64.68;;;25.35;;
28625;SDS011;18905;42.668;23.364;2023-02-28T08:49:36;49.90;;;21.10;;
28625;SDS011;18905;42.668;23.364;2023-02-28T08:52:05;49.63;;;23.70;;
28625;SDS011;18905;42.668;23.364;2023-02-28T08:54:31;50.20;;;24.15;;
28625;SDS011;18905;42.668;23.364;2023-02-28T08:56:58;52.25;;;22.23;;
28625;SDS011;18905;42.668;23.364;2023-02-28T08:59:24;54.38;;;23.27;;
28625;SDS011;18905;42.668;23.364;2023-02-28T09:01:50;26.05;;;13.48;;
28625;SDS011;18905;42.668;23.364;2023-02-28T09:04:15;55.25;;;21.73;;
28625;SDS011;18905;42.668;23.364;2023-02-28T09:06:41;44.90;;;21.23;;
28625;SDS011;18905;42.668;23.364;2023-02-28T09:09:07;50.80;;;23.00;;
28625;SDS011;18905;42.668;23.364;2023-02-28T09:11:34;45.40;;;21.88;;
28625;SDS011;18905;42.668;23.364;2023-02-28T09:19:47;39.70;;;19.35;;
28625;SDS011;18905;42.668;23.364;2023-02-28T09:22:23;43.28;;;19.73;;
28625;SDS011;18905;42.668;23.364;2023-02-28T09:25:45;43.35;;;19.02;;
28625;SDS011;18905;42.668;23.364;2023-02-28T09:28:48;45.28;;;21.33;;
28625;SDS011;18905;42.668;23.364;2023-02-28T09:32:03;53.85;;;22.90;;
28625;SDS011;18905;42.668;23.364;2023-02-28T09:34:45;41.08;;;20.38;;
28625;SDS011;18905;42.668;23.364;2023-02-28T09:37:13;50.70;;;20.27;;
28625;SDS011;18905;42.668;23.364;2023-02-28T09:40:28;39.67;;;20.33;;
28625;SDS011;18905;42.668;23.364;2023-02-28T09:43:09;41.30;;;19.75;;
28625;SDS011;18905;42.668;23.364;2023-02-28T09:46:05;36.85;;;16.98;;
28625;SDS011;18905;42.668;23.364;2023-02-28T09:49:23;42.25;;;18.02;;
28625;SDS011;18905;42.668;23.364;2023-02-28T09:52:01;44.72;;;19.15;;
28625;SDS011;18905;42.668;23.364;2023-02-28T09:54:36;37.30;;;17.63;;
28625;SDS011;18905;42.668;23.364;2023-02-28T09:57:11;49.15;;;18.48;;
28625;SDS011;18905;42.668;23.364;2023-02-28T10:02:45;26.75;;;11.30;;
28625;SDS011;18905;42.668;23.364;2023-02-28T10:05:30;39.05;;;17.45;;
28625;SDS011;18905;42.668;23.364;2023-02-28T10:10:41;37.37;;;16.67;;
28625;SDS011;18905;42.668;23.364;2023-02-28T10:15:55;39.15;;;15.93;;
28625;SDS011;18905;42.668;23.364;2023-02-28T10:21:27;37.13;;;14.77;;
28625;SDS011;18905;42.668;23.364;2023-02-28T10:24:01;24.98;;;12.27;;
28625;SDS011;18905;42.668;23.364;2023-02-28T10:26:31;32.97;;;15.57;;
28625;SDS011;18905;42.668;23.364;2023-02-28T10:28:58;32.28;;;13.90;;
28625;SDS011;18905;42.668;23.364;2023-02-28T10:31:24;27.13;;;13.18;;
28625;SDS011;18905;42.668;23.364;2023-02-28T10:33:50;32.65;;;15.77;;
28625;SDS011;18905;42.668;23.364;2023-02-28T10:36:17;29.90;;;14.30;;
28625;SDS011;18905;42.668;23.364;2023-02-28T10:38:45;30.70;;;14.27;;
28625;SDS011;18905;42.668;23.364;2023-02-28T10:41:15;36.92;;;14.20;;
28625;SDS011;18905;42.668;23.364;2023-02-28T10:44:21;33.28;;;13.50;;
28625;SDS011;18905;42.668;23.364;2023-02-28T10:46:49;37.45;;;15.05;;
28625;SDS011;18905;42.668;23.364;2023-02-28T10:49:24;30.42;;;12.05;;
28625;SDS011;18905;42.668;23.364;2023-02-28T10:51:56;33.35;;;14.30;;
28625;SDS011;18905;42.668;23.364;2023-02-28T10:54:29;31.88;;;13.50;;
28625;SDS011;18905;42.668;23.364;2023-02-28T10:57:22;34.25;;;13.35;;
28625;SDS011;18905;42.668;23.364;2023-02-28T11:00:05;33.95;;;14.75;;
28625;SDS011;18905;42.668;23.364;2023-02-28T11:02:52;27.73;;;11.05;;
28625;SDS011;18905;42.668;23.364;2023-02-28T11:05:25;40.20;;;14.50;;
28625;SDS011;18905;42.668;23.364;2023-02-28T11:08:06;37.17;;;15.25;;
28625;SDS011;18905;42.668;23.364;2023-02-28T11:10:43;27.67;;;13.27;;
28625;SDS011;18905;42.668;23.364;2023-02-28T11:13:18;33.63;;;13.85;;
28625;SDS011;18905;42.668;23.364;2023-02-28T11:15:53;36.80;;;14.52;;
28625;SDS011;18905;42.668;23.364;2023-02-28T11:20:50;37.17;;;15.52;;
28625;SDS011;18905;42.668;23.364;2023-02-28T11:23:18;30.70;;;15.35;;
28625;SDS011;18905;42.668;23.364;2023-02-28T11:25:54;40.83;;;15.40;;
28625;SDS011;18905;42.668;23.364;2023-02-28T11:31:23;33.33;;;13.70;;
28625;SDS011;18905;42.668;23.364;2023-02-28T11:33:55;31.25;;;14.65;;
28625;SDS011;18905;42.668;23.364;2023-02-28T11:36:24;33.33;;;14.35;;
28625;SDS011;18905;42.668;23.364;2023-02-28T11:38:53;42.50;;;14.95;;
28625;SDS011;18905;42.668;23.364;2023-02-28T11:41:29;33.50;;;15.95;;
28625;SDS011;18905;42.668;23.364;2023-02-28T11:53:39;33.75;;;16.33;;
28625;SDS011;18905;42.668;23.364;2023-02-28T11:56:25;37.63;;;15.75;;
28625;SDS011;18905;42.668;23.364;2023-02-28T12:05:18;33.25;;;15.93;;
28625;SDS011;18905;42.668;23.364;2023-02-28T12:08:19;31.67;;;15.35;;
28625;SDS011;18905;42.668;23.364;2023-02-28T12:11:15;37.08;;;15.52;;
28625;SDS011;18905;42.668;23.364;2023-02-28T12:16:52;39.05;;;16.30;;
28625;SDS011;18905;42.668;23.364;2023-02-28T12:19:24;42.15;;;16.77;;
28625;SDS011;18905;42.668;23.364;2023-02-28T12:25:02;34.17;;;15.75;;
28625;SDS011;18905;42.668;23.364;2023-02-28T12:27:47;38.75;;;17.08;;
28625;SDS011;18905;42.668;23.364;2023-02-28T12:30:32;40.55;;;16.83;;
28625;SDS011;18905;42.668;23.364;2023-02-28T12:35:33;33.67;;;15.50;;
28625;SDS011;18905;42.668;23.364;2023-02-28T12:38:12;37.78;;;15.48;;
28625;SDS011;18905;42.668;23.364;2023-02-28T12:40:50;37.13;;;16.40;;
28625;SDS011;18905;42.668;23.364;2023-02-28T12:43:20;36.20;;;15.43;;
28625;SDS011;18905;42.668;23.364;2023-02-28T12:48:25;39.47;;;15.48;;
28625;SDS011;18905;42.668;23.364;2023-02-28T12:50:56;40.47;;;16.30;;
28625;SDS011;18905;42.668;23.364;2023-02-28T12:59:14;37.20;;;13.70;;
28625;SDS011;18905;42.668;23.364;2023-02-28T13:10:23;37.78;;;14.93;;
28625;SDS011;18905;42.668;23.364;2023-02-28T13:12:49;32.00;;;13.50;;
28625;SDS011;18905;42.668;23.364;2023-02-28T13:17:44;28.70;;;14.57;;
28625;SDS011;18905;42.668;23.364;2023-02-28T13:20:15;33.80;;;14.85;;
28625;SDS011;18905;42.668;23.364;2023-02-28T13:23:00;37.03;;;14.02;;
28625;SDS011;18905;42.668;23.364;2023-02-28T13:27:59;38.90;;;17.20;;
28625;SDS011;18905;42.668;23.364;2023-02-28T13:33:38;33.75;;;12.80;;
28625;SDS011;18905;42.668;23.364;2023-02-28T13:38:50;32.47;;;16.88;;
28625;SDS011;18905;42.668;23.364;2023-02-28T13:57:14;24.20;;;10.38;;
28625;SDS011;18905;42.668;23.364;2023-02-28T13:59:54;22.50;;;10.68;;
28625;SDS011;18905;42.668;23.364;2023-02-28T14:05:10;25.77;;;10.88;;
28625;SDS011;18905;42.668;23.364;2023-02-28T14:07:45;27.08;;;11.90;;
28625;SDS011;18905;42.668;23.364;2023-02-28T14:10:22;25.00;;;11.45;;
28625;SDS011;18905;42.668;23.364;2023-02-28T14:13:51;29.90;;;12.93;;
28625;SDS011;18905;42.668;23.364;2023-02-28T14:16:09;29.90;;;12.65;;
28625;SDS011;18905;42.668;23.364;2023-02-28T14:18:40;23.10;;;10.40;;
28625;SDS011;18905;42.668;23.364;2023-02-28T14:23:52;29.85;;;11.88;;
28625;SDS011;18905;42.668;23.364;2023-02-28T14:29:36;26.75;;;11.30;;
28625;SDS011;18905;42.668;23.364;2023-02-28T14:32:21;30.92;;;12.32;;
28625;SDS011;18905;42.668;23.364;2023-02-28T14:37:38;39.55;;;12.35;;
28625;SDS011;18905;42.668;23.364;2023-02-28T14:40:11;27.33;;;11.32;;
28625;SDS011;18905;42.668;23.364;2023-02-28T14:42:39;25.38;;;10.23;;
28625;SDS011;18905;42.668;23.364;2023-02-28T14:45:20;26.73;;;10.07;;
28625;SDS011;18905;42.668;23.364;2023-02-28T14:47:48;25.60;;;10.30;;
28625;SDS011;18905;42.668;23.364;2023-02-28T14:50:19;23.33;;;10.18;;
28625;SDS011;18905;42.668;23.364;2023-02-28T14:52:46;26.17;;;9.93;;
28625;SDS011;18905;42.668;23.364;2023-02-28T14:55:15;22.40;;;9.80;;
28625;SDS011;18905;42.668;23.364;2023-02-28T14:57:56;27.98;;;10.02;;
28625;SDS011;18905;42.668;23.364;2023-02-28T15:02:51;29.23;;;10.73;;
28625;SDS011;18905;42.668;23.364;2023-02-28T15:08:00;27.65;;;9.80;;
28625;SDS011;18905;42.668;23.364;2023-02-28T15:10:27;27.38;;;10.05;;
28625;SDS011;18905;42.668;23.364;2023-02-28T15:12:56;81.63;;;29.55;;
28625;SDS011;18905;42.668;23.364;2023-02-28T15:15:27;55.97;;;23.00;;
28625;SDS011;18905;42.668;23.364;2023-02-28T15:18:04;242.38;;;88.93;;
28625;SDS011;18905;42.668;23.364;2023-02-28T15:20:31;202.43;;;73.03;;
28625;SDS011;18905;42.668;23.364;2023-02-28T15:22:57;126.13;;;44.70;;
28625;SDS011;18905;42.668;23.364;2023-02-28T15:25:24;154.10;;;59.58;;
28625;SDS011;18905;42.668;23.364;2023-02-28T15:27:52;103.57;;;37.83;;
28625;SDS011;18905;42.668;23.364;2023-02-28T15:30:21;329.42;;;108.68;;
28625;SDS011;18905;42.668;23.364;2023-02-28T15:35:41;84.07;;;30.98;;
28625;SDS011;18905;42.668;23.364;2023-02-28T15:38:14;45.70;;;15.52;;
28625;SDS011;18905;42.668;23.364;2023-02-28T15:40:49;191.82;;;67.50;;
28625;SDS011;18905;42.668;23.364;2023-02-28T15:43:28;89.00;;;28.70;;
28625;SDS011;18905;42.668;23.364;2023-02-28T15:45:59;140.90;;;46.03;;
28625;SDS011;18905;42.668;23.364;2023-02-28T15:53:47;30.27;;;11.23;;
28625;SDS011;18905;42.668;23.364;2023-02-28T15:56:20;31.65;;;12.77;;
28625;SDS011;18905;42.668;23.364;2023-02-28T15:58:46;36.50;;;13.20;;
28625;SDS011;18905;42.668;23.364;2023-02-28T16:01:20;66.25;;;25.73;;
28625;SDS011;18905;42.668;23.364;2023-02-28T16:03:50;30.23;;;14.85;;
28625;SDS011;18905;42.668;23.364;2023-02-28T16:09:08;47.50;;;21.25;;
28625;SDS011;18905;42.668;23.364;2023-02-28T16:11:37;29.08;;;14.23;;
28625;SDS011;18905;42.668;23.364;2023-02-28T16:14:06;143.80;;;54.22;;
28625;SDS011;18905;42.668;23.364;2023-02-28T16:16:33;294.90;;;106.03;;
28625;SDS011;18905;42.668;23.364;2023-02-28T16:19:00;22.95;;;10.82;;
28625;SDS011;18905;42.668;23.364;2023-02-28T16:21:25;26.83;;;10.23;;
28625;SDS011;18905;42.668;23.364;2023-02-28T16:23:51;24.52;;;9.98;;
28625;SDS011;18905;42.668;23.364;2023-02-28T16:26:21;20.00;;;9.27;;
28625;SDS011;18905;42.668;23.364;2023-02-28T16:28:49;18.65;;;9.25;;
28625;SDS011;18905;42.668;23.364;2023-02-28T16:31:16;19.10;;;10.48;;
28625;SDS011;18905;42.668;23.364;2023-02-28T16:33:42;21.60;;;8.57;;
28625;SDS011;18905;42.668;23.364;2023-02-28T16:36:13;25.60;;;10.68;;
28625;SDS011;18905;42.668;23.364;2023-02-28T16:38:43;25.40;;;11.35;;
28625;SDS011;18905;42.668;23.364;2023-02-28T16:41:11;18.98;;;8.93;;
28625;SDS011;18905;42.668;23.364;2023-02-28T16:43:43;16.67;;;4.88;;
28625;SDS011;18905;42.668;23.364;2023-02-28T16:46:10;19.27;;;8.90;;
28625;SDS011;18905;42.668;23.364;2023-02-28T16:48:37;16.25;;;9.27;;
28625;SDS011;18905;42.668;23.364;2023-02-28T16:51:03;23.45;;;9.48;;
28625;SDS011;18905;42.668;23.364;2023-02-28T16:53:29;17.00;;;9.40;;
28625;SDS011;18905;42.668;23.364;2023-02-28T16:55:55;20.70;;;9.23;;
28625;SDS011;18905;42.668;23.364;2023-02-28T16:58:20;17.75;;;8.00;;
28625;SDS011;18905;42.668;23.364;2023-02-28T17:00:48;23.42;;;9.68;;
28625;SDS011;18905;42.668;23.364;2023-02-28T17:03:23;17.33;;;8.27;;
28625;SDS011;18905;42.668;23.364;2023-02-28T17:05:52;23.05;;;8.07;;
28625;SDS011;18905;42.668;23.364;2023-02-28T17:08:17;18.70;;;8.93;;
28625;SDS011;18905;42.668;23.364;2023-02-28T17:10:44;18.63;;;8.07;;